createdAt,value
2019-03-21T00:01:11.380Z,10.30
2019-03-21T00:03:43.296Z,10.30
2019-03-21T00:06:16.058Z,10.30
2019-03-21T00:08:47.742Z,10.30
2019-03-21T00:12:14.018Z,10.30
2019-03-21T00:15:09.338Z,10.20
2019-03-21T00:17:54.220Z,10.10
2019-03-21T00:20:25.543Z,10.10
2019-03-21T00:22:57.584Z,10.10
2019-03-21T00:25:29.264Z,10.10
2019-03-21T00:28:01.066Z,10.10
2019-03-21T00:30:33.156Z,10.10
2019-03-21T00:33:04.666Z,10.10
2019-03-21T00:35:38.533Z,10.10
2019-03-21T00:38:10.201Z,10.10
2019-03-21T00:40:44.018Z,10.00
2019-03-21T00:43:16.077Z,10.00
2019-03-21T00:45:47.395Z,10.00
2019-03-21T00:48:19.917Z,10.00
2019-03-21T00:50:51.481Z,10.00
2019-03-21T00:53:22.920Z,10.00
2019-03-21T00:55:54.480Z,10.00
2019-03-21T00:58:26.283Z,9.90
2019-03-21T01:00:57.840Z,9.90
2019-03-21T01:03:29.644Z,9.90
2019-03-21T01:06:01.325Z,9.90
2019-03-21T01:08:33.245Z,9.90
2019-03-21T01:11:04.808Z,9.90
2019-03-21T01:13:37.209Z,9.90
2019-03-21T01:16:09.609Z,9.90
2019-03-21T01:18:42.016Z,9.90
2019-03-21T01:21:13.722Z,9.90
2019-03-21T01:23:47.054Z,9.90
2019-03-21T01:26:18.259Z,9.90
2019-03-21T01:28:50.543Z,9.80
2019-03-21T01:31:22.817Z,9.80
2019-03-21T01:33:54.137Z,9.80
2019-03-21T01:36:27.169Z,9.80
2019-03-21T01:38:58.580Z,9.80
2019-03-21T01:41:30.505Z,9.70
2019-03-21T01:44:02.543Z,9.70
2019-03-21T01:46:33.895Z,9.70
2019-03-21T01:49:05.666Z,9.70
2019-03-21T01:51:37.347Z,9.70
2019-03-21T01:54:09.387Z,9.70
2019-03-21T01:56:40.831Z,9.70
2019-03-21T01:59:12.153Z,9.70
2019-03-21T02:01:43.476Z,9.70
2019-03-21T02:04:15.515Z,9.70
2019-03-21T02:06:47.435Z,9.70
2019-03-21T02:09:18.997Z,9.60
2019-03-21T02:11:50.440Z,9.60
2019-03-21T02:14:22.003Z,9.60
2019-03-21T02:16:53.678Z,9.50
2019-03-21T02:19:25.120Z,9.50
2019-03-21T02:21:56.325Z,9.50
2019-03-21T02:24:27.763Z,9.40
2019-03-21T02:26:59.444Z,9.40
2019-03-21T02:29:30.887Z,9.40
2019-03-21T02:32:03.052Z,9.40
2019-03-21T02:34:35.453Z,9.40
2019-03-21T02:37:06.778Z,9.30
2019-03-21T02:39:38.578Z,9.30
2019-03-21T02:42:09.772Z,9.30
2019-03-21T02:44:41.639Z,9.20
2019-03-21T02:47:13.733Z,9.20
2019-03-21T02:49:45.060Z,9.20
2019-03-21T02:52:16.618Z,9.20
2019-03-21T02:54:49.140Z,9.20
2019-03-21T02:57:20.824Z,9.10
2019-03-21T02:59:52.504Z,9.10
2019-03-21T03:02:24.309Z,9.10
2019-03-21T03:04:55.863Z,9.10
2019-03-21T03:07:27.427Z,9.10
2019-03-21T03:09:58.872Z,9.10
2019-03-21T03:12:31.149Z,9.10
2019-03-21T03:15:02.587Z,9.10
2019-03-21T03:17:34.063Z,9.00
2019-03-21T03:22:42.672Z,9.00
2019-03-21T03:25:14.602Z,9.00
2019-03-21T03:27:46.760Z,9.00
2019-03-21T03:30:20.236Z,9.00
2019-03-21T03:32:51.922Z,8.90
2019-03-21T03:35:23.955Z,8.90
2019-03-21T03:37:56.120Z,9.00
2019-03-21T03:40:30.687Z,9.00
2019-03-21T03:43:02.484Z,9.00
2019-03-21T03:45:37.796Z,8.90
2019-03-21T03:48:07.305Z,8.90
2019-03-21T03:50:38.606Z,8.90
2019-03-21T03:53:10.050Z,8.90
2019-03-21T03:55:41.487Z,8.90
2019-03-21T03:58:14.634Z,8.90
2019-03-21T04:00:46.534Z,8.90
2019-03-21T04:03:18.224Z,8.90
2019-03-21T04:05:50.373Z,8.80
2019-03-21T04:08:22.174Z,8.80
2019-03-21T04:10:54.096Z,8.80
2019-03-21T04:13:25.895Z,8.80
2019-03-21T04:15:58.298Z,8.80
2019-03-21T04:18:29.997Z,8.80
2019-03-21T04:21:02.754Z,8.80
2019-03-21T04:23:34.544Z,8.80
2019-03-21T04:26:10.548Z,8.80
2019-03-21T04:28:42.588Z,8.80
2019-03-21T04:31:14.387Z,8.80
2019-03-21T04:33:46.427Z,8.80
2019-03-21T04:36:18.710Z,8.70
2019-03-21T04:38:50.152Z,8.70
2019-03-21T04:41:22.552Z,8.70
2019-03-21T04:43:54.836Z,8.70
2019-03-21T04:46:26.393Z,8.70
2019-03-21T04:48:58.794Z,8.70
2019-03-21T04:51:30.600Z,8.70
2019-03-21T04:54:03.249Z,8.70
2019-03-21T04:56:35.278Z,8.70
2019-03-21T04:59:08.162Z,8.70
2019-03-21T05:01:39.840Z,8.70
2019-03-21T05:04:11.883Z,8.60
2019-03-21T05:06:43.925Z,8.60
2019-03-21T05:09:18.124Z,8.60
2019-03-21T05:11:49.325Z,8.60
2019-03-21T05:14:21.007Z,8.60
2019-03-21T05:16:52.567Z,8.60
2019-03-21T05:19:24.851Z,8.60
2019-03-21T05:21:56.170Z,8.60
2019-03-21T05:24:27.852Z,8.60
2019-03-21T05:26:59.892Z,8.50
2019-03-21T05:29:31.575Z,8.50
2019-03-21T05:32:03.872Z,8.50
2019-03-21T05:34:35.540Z,8.50
2019-03-21T05:37:07.457Z,8.50
2019-03-21T05:39:38.781Z,8.50
2019-03-21T05:42:14.420Z,8.50
2019-03-21T05:44:46.702Z,8.50
2019-03-21T05:47:18.386Z,8.50
2019-03-21T05:49:50.064Z,8.50
2019-03-21T05:52:21.386Z,8.50
2019-03-21T05:54:52.828Z,8.50
2019-03-21T05:57:24.752Z,8.50
2019-03-21T05:59:56.308Z,8.50
2019-03-21T06:02:27.870Z,8.50
2019-03-21T06:05:00.586Z,8.50
2019-03-21T06:07:45.994Z,8.50
2019-03-21T06:10:18.034Z,8.50
2019-03-21T06:12:49.358Z,8.50
2019-03-21T06:15:23.920Z,8.50
2019-03-21T06:18:19.838Z,8.50
2019-03-21T06:21:14.009Z,8.50
2019-03-21T06:24:19.603Z,8.50
2019-03-21T06:27:40.122Z,8.50
2019-03-21T06:30:12.764Z,8.50
2019-03-21T06:32:44.926Z,8.50
2019-03-21T06:35:23.684Z,8.50
2019-03-21T06:37:55.141Z,8.50
2019-03-21T06:40:26.928Z,8.40
2019-03-21T06:42:58.853Z,8.40
2019-03-21T06:45:31.371Z,8.40
2019-03-21T06:48:03.058Z,8.50
2019-03-21T06:50:36.054Z,8.40
2019-03-21T06:53:07.858Z,8.50
2019-03-21T06:55:40.496Z,8.50
2019-03-21T06:58:11.942Z,8.60
2019-03-21T07:00:43.144Z,8.50
2019-03-21T07:03:16.451Z,8.60
2019-03-21T07:05:47.582Z,8.50
2019-03-21T07:08:19.142Z,8.50
2019-03-21T07:10:50.824Z,8.60
2019-03-21T07:13:22.990Z,8.60
2019-03-21T07:15:54.668Z,8.70
2019-03-21T07:18:26.948Z,8.70
2019-03-21T07:21:00.923Z,8.70
2019-03-21T07:23:31.629Z,8.70
2019-03-21T07:26:03.080Z,8.70
2019-03-21T07:28:34.636Z,8.80
2019-03-21T07:31:05.955Z,8.70
2019-03-21T07:33:37.636Z,8.70
2019-03-21T07:36:09.199Z,8.70
2019-03-21T07:38:40.878Z,8.70
2019-03-21T07:41:14.122Z,8.80
2019-03-21T07:43:47.121Z,8.70
2019-03-21T07:46:18.922Z,8.70
2019-03-21T07:48:50.363Z,8.70
2019-03-21T07:51:21.731Z,8.80
2019-03-21T07:53:53.246Z,8.70
2019-03-21T07:56:25.097Z,8.80
2019-03-21T07:58:57.937Z,8.80
2019-03-21T08:01:29.489Z,8.90
2019-03-21T08:04:02.986Z,8.90
2019-03-21T08:06:35.493Z,9.00
2019-03-21T08:09:08.495Z,9.00
2019-03-21T08:11:39.972Z,9.00
2019-03-21T08:14:11.616Z,9.00
2019-03-21T08:16:43.417Z,9.00
2019-03-21T08:19:15.099Z,9.10
2019-03-21T08:21:46.539Z,9.10
2019-03-21T08:24:18.579Z,9.20
2019-03-21T08:26:50.260Z,9.10
2019-03-21T08:29:22.185Z,9.20
2019-03-21T08:31:53.863Z,9.20
2019-03-21T08:34:25.666Z,9.20
2019-03-21T08:36:56.987Z,9.20
2019-03-21T08:39:29.867Z,9.30
2019-03-21T08:42:02.391Z,9.30
2019-03-21T08:44:34.278Z,9.30
2019-03-21T08:47:05.752Z,9.30
2019-03-21T08:49:37.915Z,9.30
2019-03-21T08:52:09.475Z,9.30
2019-03-21T08:54:41.035Z,9.30
2019-03-21T08:57:12.836Z,9.40
2019-03-21T08:59:44.399Z,9.40
2019-03-21T09:02:16.079Z,9.40
2019-03-21T09:04:48.239Z,9.40
2019-03-21T09:07:19.684Z,9.40
2019-03-21T09:09:51.243Z,9.50
2019-03-21T09:12:22.690Z,9.50
2019-03-21T09:14:54.007Z,9.60
2019-03-21T09:17:25.929Z,9.60
2019-03-21T09:19:57.607Z,9.60
2019-03-21T09:22:29.291Z,9.60
2019-03-21T09:25:00.622Z,9.60
2019-03-21T09:27:32.052Z,9.70
2019-03-21T09:30:03.857Z,9.70
2019-03-21T09:32:35.415Z,9.80
2019-03-21T09:37:46.579Z,9.90
2019-03-21T09:40:18.136Z,10.00
2019-03-21T09:42:49.817Z,10.00
2019-03-21T09:45:22.701Z,10.10
2019-03-21T09:47:54.145Z,10.10
2019-03-21T09:50:29.908Z,10.10
2019-03-21T09:53:01.707Z,10.20
2019-03-21T09:55:33.029Z,10.20
2019-03-21T09:58:04.954Z,10.20
2019-03-21T10:00:36.988Z,10.30
2019-03-21T10:03:09.031Z,10.30
2019-03-21T10:05:40.469Z,10.40
2019-03-21T10:08:13.053Z,10.40
2019-03-21T10:10:44.793Z,10.40
2019-03-21T10:13:17.195Z,10.30
2019-03-21T10:15:48.995Z,10.30
2019-03-21T10:18:20.683Z,10.30
2019-03-21T10:20:52.360Z,10.40
2019-03-21T10:23:24.397Z,10.40
2019-03-21T10:25:56.081Z,10.40
2019-03-21T10:28:27.402Z,10.40
2019-03-21T10:30:58.848Z,10.40
2019-03-21T10:33:30.403Z,10.50
2019-03-21T10:36:03.527Z,10.50
2019-03-21T10:38:35.686Z,10.60
2019-03-21T10:41:06.887Z,10.60
2019-03-21T10:43:39.170Z,10.70
2019-03-21T10:46:11.570Z,10.80
2019-03-21T10:48:43.012Z,10.80
2019-03-21T10:51:14.331Z,10.90
2019-03-21T10:53:46.373Z,10.80
2019-03-21T10:56:18.657Z,10.90
2019-03-21T10:58:50.819Z,10.90
2019-03-21T11:01:22.617Z,10.90
2019-03-21T11:03:53.818Z,10.90
2019-03-21T11:06:25.259Z,11.00
2019-03-21T11:08:56.582Z,11.10
2019-03-21T11:11:28.144Z,11.20
2019-03-21T11:14:00.189Z,11.20
2019-03-21T11:16:32.707Z,11.20
2019-03-21T11:19:04.025Z,11.00
2019-03-21T11:21:35.709Z,11.00
2019-03-21T11:24:07.867Z,11.10
2019-03-21T11:26:39.311Z,11.10
2019-03-21T11:29:11.115Z,11.20
2019-03-21T11:31:42.673Z,11.20
2019-03-21T11:34:13.873Z,11.20
2019-03-21T11:36:46.155Z,11.20
2019-03-21T11:39:17.716Z,11.20
2019-03-21T11:41:49.037Z,11.20
2019-03-21T11:44:20.839Z,11.20
2019-03-21T11:46:52.522Z,11.10
2019-03-21T11:49:24.212Z,11.10
2019-03-21T11:51:56.365Z,11.20
2019-03-21T11:54:28.170Z,11.20
2019-03-21T11:56:59.726Z,11.20
2019-03-21T11:59:46.274Z,11.20
2019-03-21T12:02:04.889Z,11.20
2019-03-21T12:04:36.209Z,11.20
2019-03-21T12:07:08.863Z,11.10
2019-03-21T12:09:40.540Z,11.10
2019-03-21T12:12:12.815Z,11.00
2019-03-21T12:14:44.256Z,11.10
2019-03-21T12:17:16.185Z,11.10
2019-03-21T12:19:47.858Z,11.10
2019-03-21T12:22:29.510Z,11.20
2019-03-21T12:24:52.417Z,11.20
2019-03-21T12:27:23.859Z,11.30
2019-03-21T12:29:55.301Z,11.30
2019-03-21T12:32:26.864Z,11.40
2019-03-21T12:34:59.070Z,11.30
2019-03-21T12:37:30.825Z,11.30
2019-03-21T12:40:02.386Z,11.30
2019-03-21T12:42:35.270Z,11.30
2019-03-21T12:45:08.749Z,11.30
2019-03-21T12:47:40.315Z,11.30
2019-03-21T12:50:18.709Z,11.30
2019-03-21T12:52:50.034Z,11.30
2019-03-21T12:55:22.797Z,11.30
2019-03-21T12:57:55.250Z,11.40
2019-03-21T13:00:46.077Z,11.40
2019-03-21T13:03:17.280Z,11.40
2019-03-21T13:05:48.600Z,11.50
2019-03-21T13:08:20.160Z,11.50
2019-03-21T13:10:51.723Z,11.50
2019-03-21T13:13:24.242Z,11.50
2019-03-21T13:15:56.163Z,11.60
2019-03-21T13:18:27.847Z,11.60
2019-03-21T13:20:59.295Z,11.70
2019-03-21T13:23:30.854Z,11.70
2019-03-21T13:26:02.187Z,11.80
2019-03-21T13:28:33.610Z,11.80
2019-03-21T13:31:05.412Z,11.90
2019-03-21T13:33:36.853Z,11.90
2019-03-21T13:36:18.378Z,11.90
2019-03-21T13:38:50.176Z,12.00
2019-03-21T13:41:21.856Z,12.10
2019-03-21T13:43:53.538Z,12.10
2019-03-21T13:46:24.980Z,12.10
2019-03-21T13:48:56.420Z,12.20
2019-03-21T13:51:28.109Z,12.20
2019-03-21T13:53:59.544Z,12.20
2019-03-21T13:56:38.095Z,12.30
2019-03-21T13:59:05.306Z,12.40
2019-03-21T14:01:37.346Z,12.50
2019-03-21T14:04:08.786Z,12.50
2019-03-21T14:06:40.831Z,12.80
2019-03-21T14:09:12.271Z,13.00
2019-03-21T14:11:43.710Z,13.10
2019-03-21T14:14:15.635Z,13.30
2019-03-21T14:16:47.554Z,13.40
2019-03-21T14:19:18.997Z,13.40
2019-03-21T14:21:50.678Z,13.50
2019-03-21T14:24:22.596Z,13.70
2019-03-21T14:26:55.603Z,13.80
2019-03-21T14:29:28.241Z,13.90
2019-03-21T14:31:59.800Z,14.00
2019-03-21T14:34:31.966Z,14.10
2019-03-21T14:37:03.407Z,14.20
2019-03-21T14:39:34.846Z,14.20
2019-03-21T14:42:06.168Z,14.30
2019-03-21T14:44:38.451Z,14.40
2019-03-21T14:47:10.128Z,14.60
2019-03-21T14:49:41.688Z,14.70
2019-03-21T14:52:13.373Z,14.80
2019-03-21T14:54:45.172Z,14.90
2019-03-21T14:57:16.617Z,14.90
2019-03-21T14:59:47.939Z,15.00
2019-03-21T15:02:19.499Z,15.00
2019-03-21T15:04:52.380Z,15.10
2019-03-21T15:07:24.187Z,15.20
2019-03-21T15:09:55.622Z,15.20
2019-03-21T15:12:29.661Z,15.20
2019-03-21T15:15:00.376Z,15.30
2019-03-21T15:17:32.463Z,15.30
2019-03-21T15:20:04.157Z,15.30
2019-03-21T15:22:36.306Z,15.30
2019-03-21T15:25:08.353Z,15.40
2019-03-21T15:27:40.151Z,15.40
2019-03-21T15:30:17.352Z,15.50
2019-03-21T15:32:49.159Z,15.60
2019-03-21T15:35:21.072Z,15.60
2019-03-21T15:37:52.399Z,15.60
2019-03-21T15:40:24.198Z,15.60
2019-03-21T15:42:57.056Z,15.60
2019-03-21T15:45:29.003Z,15.50
2019-03-21T15:48:01.048Z,15.50
2019-03-21T15:50:37.297Z,15.60
2019-03-21T15:53:08.242Z,15.60
2019-03-21T15:55:40.526Z,15.60
2019-03-21T15:58:12.500Z,15.60
2019-03-21T16:00:44.725Z,15.70
2019-03-21T16:03:16.290Z,15.70
2019-03-21T16:05:48.091Z,15.70
2019-03-21T16:08:19.409Z,15.70
2019-03-21T16:10:52.048Z,15.60
2019-03-21T16:13:23.851Z,15.50
2019-03-21T16:15:57.214Z,15.40
2019-03-21T16:18:29.013Z,15.20
2019-03-21T16:21:00.467Z,15.20
2019-03-21T16:23:32.145Z,15.10
2019-03-21T16:26:05.147Z,15.00
2019-03-21T16:28:36.942Z,15.00
2019-03-21T16:31:09.033Z,14.90
2019-03-21T16:33:43.120Z,14.90
2019-03-21T16:36:14.024Z,14.80
2019-03-21T16:38:45.583Z,14.80
2019-03-21T16:41:17.511Z,14.70
2019-03-21T16:43:49.069Z,14.60
2019-03-21T16:46:20.869Z,14.50
2019-03-21T16:48:52.439Z,14.50
2019-03-21T16:51:23.872Z,14.50
2019-03-21T16:53:56.871Z,14.60
2019-03-21T16:56:28.126Z,14.50
2019-03-21T16:58:59.515Z,14.50
2019-03-21T17:01:31.195Z,14.60
2019-03-21T17:04:03.717Z,14.60
2019-03-21T17:06:35.037Z,14.60
2019-03-21T17:09:09.841Z,14.60
2019-03-21T17:11:41.769Z,14.60
2019-03-21T17:14:13.339Z,14.60
2019-03-21T17:16:44.653Z,14.60
2019-03-21T17:19:16.084Z,14.60
2019-03-21T17:21:47.415Z,14.60
2019-03-21T17:24:28.707Z,14.50
2019-03-21T17:26:52.450Z,14.50
2019-03-21T17:29:24.131Z,14.60
2019-03-21T17:31:55.691Z,14.50
2019-03-21T17:34:27.015Z,14.50
2019-03-21T17:36:58.212Z,14.50
2019-03-21T17:39:29.895Z,14.50
2019-03-21T17:42:01.820Z,14.50
2019-03-21T17:44:33.016Z,14.50
2019-03-21T17:47:04.349Z,14.50
2019-03-21T17:49:35.663Z,14.50
2019-03-21T17:52:08.060Z,14.50
2019-03-21T17:54:41.687Z,14.50
2019-03-21T17:57:12.625Z,14.50
2019-03-21T17:59:44.305Z,14.50
2019-03-21T18:02:15.867Z,14.40
2019-03-21T18:04:47.428Z,14.50
2019-03-21T18:07:19.228Z,14.40
2019-03-21T18:09:51.874Z,14.40
2019-03-21T18:12:23.191Z,14.40
2019-03-21T18:14:54.394Z,14.40
2019-03-21T18:17:26.074Z,14.40
2019-03-21T18:19:57.996Z,14.40
2019-03-21T18:22:29.195Z,14.40
2019-03-21T18:25:01.238Z,14.40
2019-03-21T18:27:32.918Z,14.40
2019-03-21T18:30:04.483Z,14.40
2019-03-21T18:32:36.284Z,14.30
2019-03-21T18:35:07.961Z,14.30
2019-03-21T18:37:45.524Z,14.30
2019-03-21T18:40:16.969Z,14.30
2019-03-21T18:42:48.170Z,14.30
2019-03-21T18:45:19.850Z,14.30
2019-03-21T18:47:51.052Z,14.20
2019-03-21T18:50:22.726Z,14.30
2019-03-21T18:52:53.933Z,14.30
2019-03-21T18:55:25.974Z,14.30
2019-03-21T18:57:57.293Z,14.30
2019-03-21T19:00:29.336Z,14.30
2019-03-21T19:03:00.880Z,14.30
2019-03-21T19:05:32.698Z,14.30
2019-03-21T19:08:04.983Z,14.30
2019-03-21T19:10:37.503Z,14.30
2019-03-21T19:13:09.065Z,14.30
2019-03-21T19:15:40.261Z,14.30
2019-03-21T19:18:11.946Z,14.30
2019-03-21T19:20:43.863Z,14.30
2019-03-21T19:23:15.309Z,14.20
2019-03-21T19:25:46.508Z,14.20
2019-03-21T19:28:17.711Z,14.20
2019-03-21T19:30:49.389Z,14.10
2019-03-21T19:33:20.835Z,14.10
2019-03-21T19:35:53.112Z,14.10
2019-03-21T19:38:24.794Z,14.10
2019-03-21T19:40:56.475Z,14.10
2019-03-21T19:43:27.677Z,14.10
2019-03-21T19:45:59.292Z,14.10
2019-03-21T19:48:30.442Z,14.10
2019-03-21T19:51:02.001Z,14.10
2019-03-21T19:53:34.288Z,14.10
2019-03-21T19:56:08.787Z,14.10
2019-03-21T19:58:38.243Z,14.10
2019-03-21T20:01:09.450Z,14.00
2019-03-21T20:03:40.653Z,14.00
2019-03-21T20:06:11.968Z,14.00
2019-03-21T20:08:43.287Z,14.00
2019-03-21T20:11:14.488Z,14.00
2019-03-21T20:13:47.012Z,14.00
2019-03-21T20:16:18.213Z,14.00
2019-03-21T20:18:49.413Z,14.00
2019-03-21T20:21:21.097Z,14.00
2019-03-21T20:23:52.536Z,14.00
2019-03-21T20:26:24.458Z,14.00
2019-03-21T20:28:55.778Z,14.00
2019-03-21T20:31:27.701Z,13.90
2019-03-21T20:34:00.822Z,13.80
2019-03-21T20:36:32.262Z,13.80
2019-03-21T20:39:04.544Z,13.80
2019-03-21T20:41:37.665Z,13.70
2019-03-21T20:44:15.060Z,13.70
2019-03-21T20:46:43.188Z,13.60
2019-03-21T20:49:14.752Z,13.60
2019-03-21T20:51:45.950Z,13.50
2019-03-21T20:54:19.914Z,13.50
2019-03-21T20:56:51.613Z,13.50
2019-03-21T20:59:23.274Z,13.50
2019-03-21T21:02:02.770Z,13.40
2019-03-21T21:04:27.240Z,13.40
2019-03-21T21:07:00.360Z,13.30
2019-03-21T21:09:31.682Z,13.30
2019-03-21T21:12:03.248Z,13.30
2019-03-21T21:14:35.164Z,13.30
2019-03-21T21:17:07.924Z,13.20
2019-03-21T21:19:39.487Z,13.20
2019-03-21T21:22:10.684Z,13.10
2019-03-21T21:24:42.133Z,13.10
2019-03-21T21:27:13.688Z,13.10
2019-03-21T21:29:44.892Z,13.10
2019-03-21T21:32:16.144Z,13.00
2019-03-21T21:34:47.293Z,13.00
2019-03-21T21:37:19.092Z,13.00
2019-03-21T21:39:50.425Z,13.00
2019-03-21T21:42:21.620Z,13.00
2019-03-21T21:44:56.058Z,12.90
2019-03-21T21:47:27.381Z,12.90
2019-03-21T21:49:58.942Z,12.90
2019-03-21T21:52:41.363Z,12.80
2019-03-21T21:55:03.142Z,12.80
2019-03-21T21:57:34.344Z,12.80
2019-03-21T22:00:09.624Z,12.80
2019-03-21T22:02:42.409Z,12.70
2019-03-21T22:05:18.988Z,12.70
2019-03-21T22:07:50.548Z,12.70
2019-03-21T22:10:22.228Z,12.60
2019-03-21T22:12:53.671Z,12.60
2019-03-21T22:15:25.598Z,12.60
2019-03-21T22:17:57.035Z,12.60
2019-03-21T22:20:29.194Z,12.50
2019-03-21T22:23:01.237Z,12.50
2019-03-21T22:25:32.678Z,12.50
2019-03-21T22:28:03.998Z,12.40
2019-03-21T22:30:35.560Z,12.40
2019-03-21T22:33:06.761Z,12.40
2019-03-21T22:35:38.322Z,12.40
2019-03-21T22:38:10.726Z,12.40
2019-03-21T22:40:42.287Z,12.30
2019-03-21T22:43:13.488Z,12.30
2019-03-21T22:45:45.530Z,12.30
2019-03-21T22:48:16.732Z,12.30
2019-03-21T22:50:47.932Z,12.20
2019-03-21T22:53:19.133Z,12.20
2019-03-21T22:55:50.218Z,12.20
2019-03-21T22:58:31.356Z,12.20
2019-03-21T23:00:54.899Z,12.20
2019-03-21T23:03:26.225Z,12.10
2019-03-21T23:05:58.378Z,12.10
2019-03-21T23:08:30.058Z,12.10
2019-03-21T23:11:01.745Z,12.10
2019-03-21T23:13:33.060Z,12.10
2019-03-21T23:16:04.628Z,12.10
2019-03-21T23:18:35.863Z,12.00
2019-03-21T23:21:07.267Z,12.00
2019-03-21T23:23:38.524Z,12.00
2019-03-21T23:26:10.029Z,12.00
2019-03-21T23:28:41.471Z,11.90
2019-03-21T23:31:12.792Z,11.90
2019-03-21T23:33:44.237Z,11.90
2019-03-21T23:36:15.677Z,11.90
2019-03-21T23:38:46.875Z,11.80
2019-03-21T23:41:18.079Z,11.80
2019-03-21T23:43:49.758Z,11.80
2019-03-21T23:46:21.440Z,11.80
2019-03-21T23:48:54.080Z,11.80
2019-03-21T23:51:25.160Z,11.70
2019-03-21T23:53:56.365Z,11.70
2019-03-21T23:56:27.443Z,11.70
2019-03-21T23:58:58.884Z,11.70
